createdAt,value
2018-10-05T00:00:18.499Z,21.9
2018-10-05T00:01:08.275Z,21.9
2018-10-05T00:01:57.963Z,21.9
2018-10-05T00:02:49.322Z,21.9
2018-10-05T00:03:38.457Z,21.9
2018-10-05T00:04:29.404Z,21.9
2018-10-05T00:05:18.546Z,21.9
2018-10-05T00:06:08.362Z,21.9
2018-10-05T00:25:32.801Z,21.9
2018-10-05T00:26:08.735Z,21.8
2018-10-05T00:26:58.493Z,21.8
2018-10-05T00:27:48.009Z,21.9
2018-10-05T00:28:37.845Z,21.9
2018-10-05T00:29:27.880Z,21.8
2018-10-05T00:30:18.760Z,21.9
2018-10-05T00:31:08.032Z,21.9
2018-10-05T00:31:58.355Z,21.9
2018-10-05T00:32:48.476Z,21.9
2018-10-05T00:33:39.032Z,21.9
2018-10-05T00:34:27.749Z,21.8
2018-10-05T00:35:18.047Z,21.8
2018-10-05T00:36:09.210Z,21.9
2018-10-05T00:36:58.384Z,21.9
2018-10-05T00:37:48.254Z,21.8
2018-10-05T00:38:38.925Z,21.8
2018-10-05T00:39:29.300Z,21.8
2018-10-05T00:40:19.289Z,21.8
2018-10-05T00:41:09.387Z,21.8
2018-10-05T00:41:58.913Z,21.8
2018-10-05T00:42:49.165Z,21.8
2018-10-05T00:43:38.669Z,21.8
2018-10-05T00:44:28.389Z,21.8
2018-10-05T00:45:20.378Z,21.8
2018-10-05T00:46:09.329Z,21.8
2018-10-05T00:46:59.489Z,21.8
2018-10-05T00:47:49.251Z,21.9
2018-10-05T00:48:39.005Z,21.8
2018-10-05T00:49:29.343Z,21.8
2018-10-05T00:50:18.871Z,21.8
2018-10-05T00:51:08.686Z,21.8
2018-10-05T00:51:58.726Z,21.8
2018-10-05T00:52:50.689Z,21.9
2018-10-05T00:53:41.543Z,21.8
2018-10-05T00:54:29.457Z,21.9
2018-10-05T00:55:19.028Z,21.8
2018-10-05T00:56:10.510Z,21.8
2018-10-05T00:56:59.995Z,21.8
2018-10-05T00:57:50.102Z,21.8
2018-10-05T00:58:40.104Z,21.8
2018-10-05T00:59:30.805Z,21.8
2018-10-05T01:00:20.285Z,21.8
2018-10-05T01:01:10.165Z,21.8
2018-10-05T01:02:01.295Z,21.8
2018-10-05T01:02:51.218Z,21.8
2018-10-05T01:03:41.478Z,21.8
2018-10-05T01:04:30.207Z,21.8
2018-10-05T01:05:35.675Z,21.8
2018-10-05T01:06:11.352Z,21.8
2018-10-05T01:07:00.340Z,21.8
2018-10-05T01:07:51.485Z,21.8
2018-10-05T01:08:40.925Z,21.8
2018-10-05T01:09:31.360Z,21.8
2018-10-05T01:10:20.903Z,21.8
2018-10-05T01:11:11.782Z,21.8
2018-10-05T01:12:01.277Z,21.8
2018-10-05T01:12:51.612Z,21.8
2018-10-05T01:13:41.337Z,21.8
2018-10-05T01:14:30.962Z,21.8
2018-10-05T01:15:20.393Z,21.8
2018-10-05T01:16:13.087Z,21.8
2018-10-05T01:17:16.582Z,21.8
2018-10-05T01:17:51.447Z,21.8
2018-10-05T01:18:42.315Z,21.8
2018-10-05T01:19:31.817Z,21.8
2018-10-05T01:20:21.594Z,21.8
2018-10-05T01:21:12.660Z,21.8
2018-10-05T01:22:02.334Z,21.8
2018-10-05T01:22:51.581Z,21.8
2018-10-05T01:23:43.184Z,21.8
2018-10-05T01:24:31.604Z,21.8
2018-10-05T01:25:22.465Z,21.8
2018-10-05T01:26:13.364Z,21.8
2018-10-05T01:27:02.377Z,21.8
2018-10-05T01:27:52.199Z,21.8
2018-10-05T01:28:43.784Z,21.8
2018-10-05T01:29:32.862Z,21.8
2018-10-05T01:30:22.071Z,21.8
2018-10-05T01:31:13.003Z,21.8
2018-10-05T01:32:02.806Z,21.8
2018-10-05T01:32:52.529Z,21.8
2018-10-05T01:33:43.673Z,21.8
2018-10-05T01:34:32.653Z,21.8
2018-10-05T01:35:22.996Z,21.8
2018-10-05T01:36:13.023Z,21.8
2018-10-05T01:37:03.938Z,21.8
2018-10-05T01:37:53.153Z,21.8
2018-10-05T01:38:42.747Z,21.8
2018-10-05T01:39:34.151Z,21.8
2018-10-05T01:40:23.643Z,21.8
2018-10-05T01:41:13.710Z,21.8
2018-10-05T01:42:03.986Z,21.8
2018-10-05T01:42:53.883Z,21.8
2018-10-05T01:43:44.733Z,21.8
2018-10-05T01:44:34.532Z,21.8
2018-10-05T01:45:23.490Z,21.8
2018-10-05T01:46:14.083Z,21.8
2018-10-05T01:47:04.933Z,21.8
2018-10-05T01:47:53.038Z,21.8
2018-10-05T01:48:43.998Z,21.8
2018-10-05T01:49:34.591Z,21.8
2018-10-05T01:50:25.018Z,21.8
2018-10-05T01:51:14.476Z,21.8
2018-10-05T01:52:05.323Z,21.8
2018-10-05T01:52:54.331Z,21.8
2018-10-05T01:53:44.670Z,21.8
2018-10-05T01:54:34.984Z,21.8
2018-10-05T01:55:24.782Z,21.8
2018-10-05T01:56:13.100Z,21.8
2018-10-05T01:57:05.429Z,21.8
2018-10-05T01:57:54.907Z,21.8
2018-10-05T01:58:44.482Z,21.8
2018-10-05T01:59:36.110Z,21.8
2018-10-05T02:00:25.452Z,21.8
2018-10-05T02:01:14.885Z,21.8
2018-10-05T02:02:06.402Z,21.8
2018-10-05T02:02:55.314Z,21.8
2018-10-05T02:03:45.081Z,21.8
2018-10-05T02:04:34.905Z,21.8
2018-10-05T02:05:24.950Z,21.8
2018-10-05T02:06:30.028Z,21.8
2018-10-05T02:07:04.517Z,21.8
2018-10-05T02:07:55.656Z,21.8
2018-10-05T02:08:45.092Z,21.8
2018-10-05T02:09:36.282Z,21.8
2018-10-05T02:10:25.870Z,21.8
2018-10-05T02:11:15.084Z,21.8
2018-10-05T02:12:06.240Z,21.8
2018-10-05T02:12:54.936Z,21.8
2018-10-05T02:13:46.367Z,21.8
2018-10-05T02:14:35.859Z,21.7
2018-10-05T02:15:26.186Z,21.8
2018-10-05T02:16:16.270Z,21.8
2018-10-05T02:17:06.957Z,21.8
2018-10-05T02:18:11.354Z,21.8
2018-10-05T02:18:46.749Z,21.8
2018-10-05T02:19:37.121Z,21.8
2018-10-05T02:20:26.355Z,21.8
2018-10-05T02:21:16.110Z,21.8
2018-10-05T02:22:06.703Z,21.7
2018-10-05T02:22:57.293Z,21.8
2018-10-05T02:23:46.583Z,21.8
2018-10-05T02:24:37.176Z,21.8
2018-10-05T02:25:27.211Z,21.8
2018-10-05T02:26:17.783Z,21.7
2018-10-05T02:27:06.233Z,21.7
2018-10-05T02:27:57.408Z,21.8
2018-10-05T02:28:46.918Z,21.8
2018-10-05T02:29:36.731Z,21.8
2018-10-05T02:30:26.818Z,21.8
2018-10-05T02:31:17.321Z,21.8
2018-10-05T02:32:08.056Z,21.8
2018-10-05T02:32:58.421Z,21.8
2018-10-05T02:33:47.631Z,21.8
2018-10-05T02:34:37.293Z,21.8
2018-10-05T02:35:42.121Z,21.8
2018-10-05T02:36:17.490Z,21.7
2018-10-05T02:37:22.543Z,21.7
2018-10-05T02:37:58.769Z,21.7
2018-10-05T02:38:47.892Z,21.7
2018-10-05T02:39:38.215Z,21.8
2018-10-05T02:40:28.062Z,21.7
2018-10-05T02:41:33.119Z,21.7
2018-10-05T02:42:08.760Z,21.7
2018-10-05T02:42:58.466Z,21.8
2018-10-05T02:44:03.464Z,21.8
2018-10-05T02:44:38.745Z,21.7
2018-10-05T02:45:28.999Z,21.7
2018-10-05T02:46:18.259Z,21.7
2018-10-05T02:47:07.694Z,21.7
2018-10-05T02:47:59.560Z,21.7
2018-10-05T02:48:49.503Z,21.8
2018-10-05T02:49:38.508Z,21.7
2018-10-05T02:50:28.519Z,21.7
2018-10-05T02:51:19.167Z,21.8
2018-10-05T02:52:09.187Z,21.7
2018-10-05T02:52:58.694Z,21.7
2018-10-05T02:53:49.579Z,21.7
2018-10-05T02:54:38.591Z,21.7
2018-10-05T02:55:28.669Z,21.7
2018-10-05T02:56:19.554Z,21.7
2018-10-05T02:57:08.171Z,21.7
2018-10-05T02:57:59.979Z,21.6
2018-10-05T02:58:48.980Z,21.7
2018-10-05T02:59:40.076Z,21.7
2018-10-05T03:01:20.343Z,21.7
2018-10-05T03:02:09.702Z,21.7
2018-10-05T03:02:59.266Z,21.7
2018-10-05T03:03:50.363Z,21.7
2018-10-05T03:04:39.261Z,21.7
2018-10-05T03:05:30.063Z,21.7
2018-10-05T03:06:20.415Z,21.7
2018-10-05T03:07:09.505Z,21.7
2018-10-05T03:08:00.504Z,21.6
2018-10-05T03:08:50.506Z,21.7
2018-10-05T03:09:40.522Z,21.7
2018-10-05T03:10:29.742Z,21.7
2018-10-05T03:11:33.574Z,21.7
2018-10-05T03:12:11.318Z,21.7
2018-10-05T03:13:01.064Z,21.7
2018-10-05T03:13:51.302Z,21.7
2018-10-05T03:14:40.577Z,21.7
2018-10-05T03:15:30.406Z,21.7
2018-10-05T03:16:20.990Z,21.7
2018-10-05T03:17:10.419Z,21.7
2018-10-05T03:18:00.799Z,21.7
2018-10-05T03:18:51.729Z,21.7
2018-10-05T03:19:39.919Z,21.7
2018-10-05T03:20:30.219Z,21.7
2018-10-05T03:21:20.257Z,21.7
2018-10-05T03:22:11.492Z,21.7
2018-10-05T03:23:00.949Z,21.7
2018-10-05T03:23:51.143Z,21.7
2018-10-05T03:24:41.397Z,21.7
2018-10-05T03:25:32.044Z,21.7
2018-10-05T03:26:21.890Z,21.7
2018-10-05T03:27:10.981Z,21.7
2018-10-05T03:28:01.939Z,21.7
2018-10-05T03:28:52.189Z,21.7
2018-10-05T03:29:41.972Z,21.7
2018-10-05T03:30:32.356Z,21.7
2018-10-05T03:31:21.819Z,21.7
2018-10-05T03:32:11.141Z,21.7
2018-10-05T03:33:02.126Z,21.6
2018-10-05T03:34:07.472Z,21.7
2018-10-05T03:34:42.074Z,21.7
2018-10-05T03:35:32.100Z,21.7
2018-10-05T03:36:22.686Z,21.7
2018-10-05T03:37:12.516Z,21.7
2018-10-05T03:38:01.738Z,21.7
2018-10-05T03:38:52.717Z,21.7
2018-10-05T03:39:42.973Z,21.7
2018-10-05T03:40:31.936Z,21.7
2018-10-05T03:41:22.566Z,21.7
2018-10-05T03:42:12.243Z,21.7
2018-10-05T03:43:02.976Z,21.7
2018-10-05T03:43:53.292Z,21.7
2018-10-05T03:44:43.036Z,21.7
2018-10-05T03:45:32.363Z,21.7
2018-10-05T03:46:23.000Z,21.7
2018-10-05T03:47:12.445Z,21.7
2018-10-05T03:48:02.718Z,21.7
2018-10-05T03:48:53.096Z,21.7
2018-10-05T03:49:41.480Z,21.7
2018-10-05T03:50:32.965Z,21.7
2018-10-05T03:51:23.332Z,21.6
2018-10-05T03:52:13.365Z,21.7
2018-10-05T03:53:03.430Z,21.7
2018-10-05T03:53:53.445Z,21.7
2018-10-05T03:54:43.527Z,21.7
2018-10-05T03:55:33.048Z,21.7
2018-10-05T03:56:23.647Z,21.7
2018-10-05T03:57:13.699Z,21.7
2018-10-05T03:58:03.572Z,21.7
2018-10-05T03:58:53.849Z,21.7
2018-10-05T03:59:43.766Z,21.6
2018-10-05T04:00:33.542Z,21.7
2018-10-05T04:01:23.309Z,21.7
2018-10-05T04:02:13.354Z,21.8
2018-10-05T04:03:02.840Z,21.7
2018-10-05T04:03:53.423Z,21.7
2018-10-05T04:04:43.355Z,21.7
2018-10-05T04:05:34.127Z,21.7
2018-10-05T04:06:24.704Z,21.7
2018-10-05T04:07:12.903Z,21.6
2018-10-05T04:08:03.164Z,21.6
2018-10-05T04:08:54.401Z,21.6
2018-10-05T04:09:43.958Z,21.7
2018-10-05T04:10:33.411Z,21.7
2018-10-05T04:11:25.895Z,21.6
2018-10-05T04:12:13.819Z,21.6
2018-10-05T04:13:04.189Z,21.6
2018-10-05T04:13:54.193Z,21.6
2018-10-05T04:14:44.589Z,21.6
2018-10-05T04:15:34.664Z,21.6
2018-10-05T04:16:24.425Z,21.7
2018-10-05T04:17:14.950Z,21.6
2018-10-05T04:18:05.052Z,21.7
2018-10-05T04:18:55.159Z,21.7
2018-10-05T04:20:00.007Z,21.7
2018-10-05T04:20:35.485Z,21.6
2018-10-05T04:21:25.856Z,21.7
2018-10-05T04:22:16.122Z,21.7
2018-10-05T04:23:05.702Z,21.6
2018-10-05T04:23:55.757Z,21.7
2018-10-05T04:24:45.016Z,21.6
2018-10-05T04:25:35.269Z,21.6
2018-10-05T04:26:43.585Z,21.7
2018-10-05T04:27:16.597Z,21.6
2018-10-05T04:28:05.033Z,21.6
2018-10-05T04:28:56.382Z,21.7
2018-10-05T04:29:46.899Z,21.6
2018-10-05T04:30:35.633Z,21.6
2018-10-05T04:31:40.285Z,21.6
2018-10-05T04:32:16.113Z,21.6
2018-10-05T04:33:05.918Z,21.7
2018-10-05T04:33:55.185Z,21.7
2018-10-05T04:34:44.718Z,21.6
2018-10-05T04:35:36.886Z,21.6
2018-10-05T04:36:25.661Z,21.7
2018-10-05T04:54:39.656Z,21.5
2018-10-05T04:55:30.292Z,21.7
2018-10-05T04:56:20.354Z,21.6
2018-10-05T04:57:10.742Z,21.6
2018-10-05T04:58:00.319Z,21.6
2018-10-05T04:58:50.196Z,21.6
2018-10-05T04:59:40.964Z,21.6
2018-10-05T05:00:31.150Z,21.6
2018-10-05T05:01:20.654Z,21.6
2018-10-05T05:02:10.217Z,21.6
2018-10-05T05:03:00.501Z,21.6
2018-10-05T05:03:50.069Z,21.6
2018-10-05T05:04:41.197Z,21.6
2018-10-05T05:05:29.881Z,21.6
2018-10-05T05:06:20.174Z,21.6
2018-10-05T05:07:10.844Z,21.6
2018-10-05T05:08:00.549Z,21.6
2018-10-05T05:08:50.462Z,21.6
2018-10-05T05:09:41.839Z,21.6
2018-10-05T05:10:30.887Z,21.6
2018-10-05T05:11:21.407Z,21.6
2018-10-05T05:12:12.278Z,21.6
2018-10-05T05:13:00.441Z,21.6
2018-10-05T05:13:49.926Z,21.6
2018-10-05T05:14:41.143Z,21.6
2018-10-05T05:15:31.196Z,21.6
2018-10-05T05:16:20.739Z,21.6
2018-10-05T05:17:10.189Z,21.6
2018-10-05T05:18:01.951Z,21.6
2018-10-05T05:18:51.640Z,21.6
2018-10-05T05:19:43.800Z,21.6
2018-10-05T05:20:31.548Z,21.6
2018-10-05T05:21:21.883Z,21.6
2018-10-05T05:22:11.395Z,21.6
2018-10-05T05:23:01.163Z,21.6
2018-10-05T05:23:51.823Z,21.6
2018-10-05T05:24:42.098Z,21.6
2018-10-05T05:25:31.840Z,21.6
2018-10-05T05:26:22.442Z,21.6
2018-10-05T05:27:12.815Z,21.6
2018-10-05T05:28:03.139Z,21.6
2018-10-05T05:28:52.189Z,21.6
2018-10-05T05:29:42.486Z,21.6
2018-10-05T05:30:32.724Z,21.6
2018-10-05T05:31:21.718Z,21.5
2018-10-05T05:32:12.366Z,21.6
2018-10-05T05:33:03.328Z,21.6
2018-10-05T05:33:53.330Z,21.6
2018-10-05T05:34:42.531Z,21.5
2018-10-05T05:35:33.653Z,21.6
2018-10-05T05:36:23.491Z,21.6
2018-10-05T05:37:12.948Z,21.6
2018-10-05T05:38:03.053Z,21.5
2018-10-05T05:38:52.863Z,21.5
2018-10-05T05:39:43.443Z,21.6
2018-10-05T05:40:34.920Z,21.5
2018-10-05T05:41:23.509Z,21.6
2018-10-05T05:42:13.306Z,21.5
2018-10-05T05:43:03.410Z,21.5
2018-10-05T05:43:53.860Z,21.5
2018-10-05T05:44:43.540Z,21.5
2018-10-05T05:45:33.416Z,21.5
2018-10-05T05:46:23.908Z,21.5
2018-10-05T05:47:14.072Z,21.5
2018-10-05T05:48:03.300Z,21.5
2018-10-05T05:48:54.145Z,21.6
2018-10-05T05:49:43.402Z,21.5
2018-10-05T05:50:33.475Z,21.5
2018-10-05T05:51:23.564Z,21.5
2018-10-05T05:52:14.529Z,21.5
2018-10-05T05:53:04.365Z,21.5
2018-10-05T05:53:55.443Z,21.5
2018-10-05T05:54:45.457Z,21.5
2018-10-05T05:55:34.155Z,21.5
2018-10-05T05:56:24.752Z,21.5
2018-10-05T05:57:14.265Z,21.5
2018-10-05T05:58:04.072Z,21.5
2018-10-05T05:58:54.914Z,21.5
2018-10-05T05:59:43.629Z,21.5
2018-10-05T06:00:35.092Z,21.5
2018-10-05T06:01:23.920Z,21.5
2018-10-05T06:02:14.890Z,21.5
2018-10-05T06:03:05.132Z,21.5
2018-10-05T06:03:55.296Z,21.5
2018-10-05T06:04:44.822Z,21.5
2018-10-05T06:05:34.867Z,21.5
2018-10-05T06:06:25.824Z,21.5
2018-10-05T06:07:15.059Z,21.5
2018-10-05T06:08:06.078Z,21.5
2018-10-05T06:08:54.610Z,21.5
2018-10-05T06:09:45.500Z,21.5
2018-10-05T06:10:35.199Z,21.5
2018-10-05T06:11:24.777Z,21.5
2018-10-05T06:12:15.095Z,21.5
2018-10-05T06:13:05.161Z,21.5
2018-10-05T06:13:55.276Z,21.5
2018-10-05T06:14:46.144Z,21.5
2018-10-05T06:15:36.516Z,21.5
2018-10-05T06:16:26.580Z,21.5
2018-10-05T06:17:15.174Z,21.5
2018-10-05T06:18:06.371Z,21.5
2018-10-05T06:18:55.561Z,21.5
2018-10-05T06:19:47.047Z,21.5
2018-10-05T06:20:36.011Z,21.5
2018-10-05T06:21:26.478Z,21.5
2018-10-05T06:22:18.106Z,21.5
2018-10-05T06:23:06.143Z,21.5
2018-10-05T06:23:55.936Z,21.5
2018-10-05T06:24:46.238Z,21.5
2018-10-05T06:25:37.015Z,21.5
2018-10-05T06:26:27.146Z,21.5
2018-10-05T06:27:18.947Z,21.5
2018-10-05T06:28:07.639Z,21.5
2018-10-05T06:28:56.468Z,21.5
2018-10-05T06:29:47.215Z,21.5
2018-10-05T06:30:37.495Z,21.5
2018-10-05T06:31:27.810Z,21.5
2018-10-05T06:32:16.825Z,21.5
2018-10-05T06:33:08.228Z,21.5
2018-10-05T06:33:57.525Z,21.4
2018-10-05T06:34:47.796Z,21.5
2018-10-05T06:35:37.284Z,21.5
2018-10-05T06:36:27.070Z,21.5
2018-10-05T06:37:17.783Z,21.4
2018-10-05T06:38:08.946Z,21.4
2018-10-05T06:38:57.919Z,21.4
2018-10-05T06:39:47.625Z,21.4
2018-10-05T06:40:38.230Z,21.4
2018-10-05T06:41:27.984Z,21.4
2018-10-05T06:42:20.730Z,21.4
2018-10-05T06:43:07.575Z,21.4
2018-10-05T06:43:57.625Z,21.4
2018-10-05T06:44:47.690Z,21.4
2018-10-05T06:45:38.374Z,21.4
2018-10-05T06:46:27.799Z,21.4
2018-10-05T06:47:18.059Z,21.4
2018-10-05T06:48:08.992Z,21.4
2018-10-05T06:48:57.692Z,21.4
2018-10-05T06:49:48.860Z,21.4
2018-10-05T06:50:38.700Z,21.4
2018-10-05T06:51:28.699Z,21.4
2018-10-05T06:52:17.959Z,21.4
2018-10-05T06:53:08.927Z,21.3
2018-10-05T06:53:58.629Z,21.3
2018-10-05T06:54:49.579Z,21.3
2018-10-05T06:55:38.743Z,21.3
2018-10-05T06:56:29.642Z,21.2
2018-10-05T06:57:19.700Z,21.2
2018-10-05T06:58:59.045Z,21.1
2018-10-05T06:59:49.872Z,21.1
2018-10-05T07:00:38.853Z,21
2018-10-05T07:01:30.226Z,21
2018-10-05T07:02:20.456Z,20.9
2018-10-05T07:03:08.463Z,20.9
2018-10-05T07:03:59.601Z,20.8
2018-10-05T07:04:49.188Z,20.9
2018-10-05T07:05:39.493Z,20.8
2018-10-05T07:06:29.533Z,20.8
2018-10-05T07:07:19.923Z,20.8
2018-10-05T07:08:11.609Z,20.8
2018-10-05T07:08:59.738Z,20.7
2018-10-05T07:09:49.505Z,20.7
2018-10-05T07:10:38.748Z,20.6
2018-10-05T07:11:30.909Z,20.6
2018-10-05T07:12:19.075Z,20.6
2018-10-05T07:13:10.349Z,20.6
2018-10-05T07:14:00.468Z,20.5
2018-10-05T07:14:50.182Z,20.5
2018-10-05T07:15:41.270Z,20.5
2018-10-05T07:16:30.883Z,20.4
2018-10-05T07:17:20.422Z,20.4
2018-10-05T07:18:11.168Z,20.4
2018-10-05T07:19:00.767Z,20.4
2018-10-05T07:19:50.540Z,20.4
2018-10-05T07:20:40.313Z,20.3
2018-10-05T07:21:33.470Z,20.3
2018-10-05T07:22:21.050Z,20.3
2018-10-05T07:23:10.757Z,20.3
2018-10-05T07:24:01.633Z,20.3
2018-10-05T07:24:50.973Z,20.2
2018-10-05T07:25:40.334Z,20.2
2018-10-05T07:26:31.292Z,20.2
2018-10-05T07:27:20.614Z,20.1
2018-10-05T07:28:12.335Z,20.1
2018-10-05T07:29:00.940Z,20.1
2018-10-05T07:29:51.546Z,20.1
2018-10-05T07:30:41.643Z,20.2
2018-10-05T07:31:30.842Z,20.1
2018-10-05T07:32:21.015Z,20.1
2018-10-05T07:33:11.881Z,20.1
2018-10-05T07:34:01.086Z,20.1
2018-10-05T07:34:51.696Z,20.1
2018-10-05T07:35:40.941Z,20.3
2018-10-05T07:36:31.897Z,20.2
2018-10-05T07:37:22.805Z,20.3
2018-10-05T07:38:10.533Z,20.3
2018-10-05T07:39:01.423Z,20.1
2018-10-05T07:39:51.512Z,20.3
2018-10-05T07:40:42.429Z,20.2
2018-10-05T07:41:32.636Z,20.3
2018-10-05T07:42:21.608Z,20.3
2018-10-05T07:43:13.946Z,20.3
2018-10-05T07:44:02.583Z,20.3
2018-10-05T07:44:52.172Z,20.3
2018-10-05T07:45:41.310Z,20.3
2018-10-05T07:46:31.982Z,20.3
2018-10-05T07:47:22.328Z,20.3
2018-10-05T07:48:12.738Z,20.3
2018-10-05T07:49:03.267Z,20.3
2018-10-05T07:49:52.836Z,20.4
2018-10-05T07:50:42.910Z,20.4
2018-10-05T07:51:32.915Z,20.4
2018-10-05T07:52:21.871Z,20.4
2018-10-05T07:53:11.693Z,20.4
2018-10-05T07:54:03.125Z,20.4
2018-10-05T07:54:52.657Z,20.4
2018-10-05T07:55:42.998Z,20.4
2018-10-05T07:56:31.995Z,20.5
2018-10-05T07:57:23.228Z,20.4
2018-10-05T07:58:12.868Z,20.4
2018-10-05T07:59:03.468Z,20.4
2018-10-05T07:59:53.302Z,20.4
2018-10-05T08:00:43.592Z,20.4
2018-10-05T08:01:33.375Z,20.5
2018-10-05T08:02:23.432Z,20.4
2018-10-05T08:03:12.792Z,20.4
2018-10-05T08:04:03.957Z,20.6
2018-10-05T08:04:54.152Z,20.4
2018-10-05T08:05:43.014Z,20.5
2018-10-05T08:06:33.083Z,20.5
2018-10-05T08:07:23.911Z,20.6
2018-10-05T08:08:14.624Z,20.5
2018-10-05T08:09:03.774Z,20.6
2018-10-05T08:09:52.644Z,20.6
2018-10-05T08:10:43.144Z,20.6
2018-10-05T08:11:33.781Z,20.6
2018-10-05T08:12:22.983Z,20.6
2018-10-05T08:13:13.841Z,20.6
2018-10-05T08:14:04.099Z,20.6
2018-10-05T08:14:53.979Z,20.6
2018-10-05T08:15:43.484Z,20.6
2018-10-05T08:16:33.081Z,20.6
2018-10-05T08:17:24.383Z,20.6
2018-10-05T08:18:13.373Z,20.6
2018-10-05T08:19:03.749Z,20.7
2018-10-05T08:19:54.326Z,20.7
2018-10-05T08:20:44.848Z,20.7
2018-10-05T08:21:35.608Z,20.7
2018-10-05T08:22:24.044Z,20.7
2018-10-05T08:23:14.454Z,20.7
2018-10-05T08:24:05.012Z,20.8
2018-10-05T08:24:55.133Z,20.7
2018-10-05T08:25:44.606Z,20.7
2018-10-05T08:26:34.084Z,20.7
2018-10-05T08:27:24.951Z,20.7
2018-10-05T08:28:14.423Z,20.8
2018-10-05T08:29:04.663Z,20.7
2018-10-05T08:29:56.276Z,20.8
2018-10-05T08:30:45.100Z,20.8
2018-10-05T08:31:35.676Z,20.8
2018-10-05T08:32:25.224Z,20.8
2018-10-05T08:33:16.790Z,20.8
2018-10-05T08:34:06.871Z,20.7
2018-10-05T08:34:56.390Z,20.7
2018-10-05T08:35:46.415Z,20.8
2018-10-05T08:36:36.025Z,20.8
2018-10-05T08:37:25.588Z,20.8
2018-10-05T08:38:15.802Z,20.8
2018-10-05T08:39:06.182Z,20.8
2018-10-05T08:39:58.325Z,20.8
2018-10-05T08:40:47.055Z,20.8
2018-10-05T08:41:36.070Z,20.8
2018-10-05T08:42:27.192Z,20.8
2018-10-05T08:43:15.640Z,20.8
2018-10-05T08:44:06.527Z,20.8
2018-10-05T08:44:56.574Z,20.8
2018-10-05T08:45:47.829Z,20.8
2018-10-05T08:46:35.540Z,20.8
2018-10-05T08:47:27.000Z,20.8
2018-10-05T08:48:16.714Z,20.8
2018-10-05T08:49:05.522Z,20.8
2018-10-05T08:49:57.004Z,20.9
2018-10-05T08:50:47.018Z,20.9
2018-10-05T08:51:38.057Z,20.8
2018-10-05T08:52:28.597Z,20.9
2018-10-05T09:08:46.250Z,20.8
2018-10-05T09:09:35.770Z,20.9
2018-10-05T09:10:25.771Z,20.9
2018-10-05T09:11:16.429Z,20.9
2018-10-05T09:12:05.383Z,20.9
2018-10-05T09:12:56.253Z,20.9
2018-10-05T09:13:45.398Z,20.9
2018-10-05T09:14:35.861Z,20.9
2018-10-05T09:15:25.366Z,20.9
2018-10-05T09:16:15.641Z,20.9
2018-10-05T09:17:05.758Z,20.9
2018-10-05T09:17:57.212Z,20.9
2018-10-05T09:18:45.852Z,20.9
2018-10-05T09:19:35.863Z,20.9
2018-10-05T09:20:25.964Z,20.9
2018-10-05T09:21:16.575Z,20.9
2018-10-05T09:22:06.700Z,20.9
2018-10-05T09:22:56.955Z,20.9
2018-10-05T09:23:46.467Z,20.9
2018-10-05T09:24:36.335Z,20.9
2018-10-05T09:25:25.632Z,21
2018-10-05T09:26:16.378Z,20.9
2018-10-05T09:27:05.625Z,20.9
2018-10-05T09:27:57.377Z,21
2018-10-05T09:28:47.135Z,21
2018-10-05T09:29:37.185Z,20.9
2018-10-05T09:30:27.121Z,20.9
2018-10-05T09:31:15.931Z,21
2018-10-05T09:32:05.799Z,21
2018-10-05T09:32:56.045Z,20.9
2018-10-05T09:33:47.412Z,20.9
2018-10-05T09:34:38.104Z,21
2018-10-05T09:35:27.059Z,21
2018-10-05T09:36:18.238Z,21
2018-10-05T09:37:07.799Z,21
2018-10-05T09:37:59.853Z,21
2018-10-05T09:38:47.867Z,21
2018-10-05T09:39:37.188Z,21
2018-10-05T09:40:27.706Z,21
2018-10-05T09:41:17.749Z,21
2018-10-05T09:42:08.138Z,21
2018-10-05T09:42:58.706Z,21.1
2018-10-05T09:43:48.701Z,21
2018-10-05T09:44:37.364Z,21
2018-10-05T09:45:28.987Z,21.1
2018-10-05T09:46:17.926Z,21.1
2018-10-05T09:47:08.546Z,21.1
2018-10-05T09:47:57.801Z,21.1
2018-10-05T09:48:47.601Z,21.1
2018-10-05T09:49:37.418Z,21.1
2018-10-05T09:50:28.731Z,21.1
2018-10-05T09:51:19.028Z,21.1
2018-10-05T09:52:08.893Z,21.1
2018-10-05T09:52:59.271Z,21.1
2018-10-05T09:54:38.241Z,21.1
2018-10-05T09:55:27.490Z,21.1
2018-10-05T09:56:17.430Z,21.1
2018-10-05T09:57:07.129Z,21.1
2018-10-05T09:59:39.461Z,21.1
2018-10-05T10:00:27.975Z,21.1
2018-10-05T10:08:00.868Z,21.1
2018-10-05T10:17:09.953Z,21.1
2018-10-05T10:24:42.024Z,21.1
2018-10-05T10:25:31.010Z,21.2
2018-10-05T10:27:11.657Z,21.3
2018-10-05T10:28:02.892Z,21.2
2018-10-05T10:28:54.231Z,21.1
2018-10-05T10:31:22.668Z,21.2
2018-10-05T10:32:12.331Z,21.2
2018-10-05T10:33:01.261Z,21.2
2018-10-05T10:34:43.737Z,21.2
2018-10-05T10:35:33.148Z,21.2
2018-10-05T10:36:23.206Z,21.2
2018-10-05T10:38:01.896Z,21.2
2018-10-05T10:39:43.469Z,21.2
2018-10-05T10:40:32.968Z,21.2
2018-10-05T10:41:23.051Z,21.2
2018-10-05T10:42:13.088Z,21.2
2018-10-05T10:43:01.521Z,21.2
2018-10-05T10:43:52.899Z,21.2
2018-10-05T10:44:42.531Z,21.2
2018-10-05T10:45:33.108Z,21.2
2018-10-05T10:46:22.878Z,21.2
2018-10-05T10:47:11.571Z,21.2
2018-10-05T10:48:03.118Z,21.2
2018-10-05T10:48:51.913Z,21.2
2018-10-05T10:49:43.134Z,21.2
2018-10-05T10:50:32.336Z,21.2
2018-10-05T10:51:22.503Z,21.3
2018-10-05T10:52:13.150Z,21.2
2018-10-05T10:53:03.483Z,21.2
2018-10-05T10:53:53.115Z,21.2
2018-10-05T10:54:43.696Z,21.2
2018-10-05T10:55:32.392Z,21.2
2018-10-05T10:56:25.979Z,21.3
2018-10-05T10:57:13.742Z,21.2
2018-10-05T10:58:03.992Z,21.2
2018-10-05T10:58:54.060Z,21.3
2018-10-05T10:59:43.237Z,21.2
2018-10-05T11:00:34.775Z,21.2
2018-10-05T11:01:24.723Z,21.2
2018-10-05T11:02:15.401Z,21.2
2018-10-05T11:03:04.760Z,21.2
2018-10-05T11:03:54.821Z,21.2
2018-10-05T11:04:47.190Z,21.2
2018-10-05T11:05:34.789Z,21.2
2018-10-05T11:06:23.716Z,21.2
2018-10-05T11:07:18.296Z,21.2
2018-10-05T11:08:04.601Z,21.2
2018-10-05T11:08:55.509Z,21.2
2018-10-05T11:09:44.959Z,21.2
2018-10-05T11:10:35.062Z,21.2
2018-10-05T11:11:26.926Z,21.3
2018-10-05T11:12:15.649Z,21.3
2018-10-05T11:13:04.454Z,21.3
2018-10-05T11:13:55.129Z,21.2
2018-10-05T11:14:45.184Z,21.2
2018-10-05T11:15:36.048Z,21.3
2018-10-05T11:16:26.607Z,21.2
2018-10-05T11:17:16.743Z,21.2
2018-10-05T11:18:05.427Z,21.2
2018-10-05T11:18:55.174Z,21.3
2018-10-05T11:19:46.404Z,21.2
2018-10-05T11:20:35.624Z,21.2
2018-10-05T11:21:26.191Z,21.2
2018-10-05T11:22:15.449Z,21.3
2018-10-05T11:23:06.515Z,21.3
2018-10-05T11:23:56.479Z,21.3
2018-10-05T11:24:46.239Z,21.3
2018-10-05T11:25:35.933Z,21.2
2018-10-05T11:26:26.951Z,21.3
2018-10-05T11:27:16.353Z,21.3
2018-10-05T11:28:06.984Z,21.2
2018-10-05T11:28:56.182Z,21.2
2018-10-05T11:29:48.089Z,21.2
2018-10-05T11:30:36.035Z,21.3
2018-10-05T11:31:25.646Z,21.3
2018-10-05T11:32:16.230Z,21.3
2018-10-05T11:33:06.380Z,21.3
2018-10-05T11:34:46.133Z,21.2
2018-10-05T11:35:36.203Z,21.3
2018-10-05T11:36:27.362Z,21.2
2018-10-05T11:37:16.692Z,21.3
2018-10-05T11:38:06.743Z,21.2
2018-10-05T11:38:57.360Z,21.2
2018-10-05T11:39:46.993Z,21.2
2018-10-05T11:40:37.210Z,21.3
2018-10-05T11:41:26.155Z,21.3
2018-10-05T11:42:16.765Z,21.2
2018-10-05T11:43:07.442Z,21.3
2018-10-05T11:43:56.930Z,21.2
2018-10-05T11:44:47.257Z,21.2
2018-10-05T11:45:37.332Z,21.2
2018-10-05T11:46:28.974Z,21.3
2018-10-05T11:47:17.115Z,21.3
2018-10-05T11:48:07.975Z,21.2
2018-10-05T11:48:57.537Z,21.3
2018-10-05T11:49:47.532Z,21.2
2018-10-05T11:50:36.650Z,21.3
2018-10-05T11:51:28.216Z,21.3
2018-10-05T11:52:18.774Z,21.3
2018-10-05T11:53:08.491Z,21.3
2018-10-05T11:53:58.339Z,21.3
2018-10-05T11:54:47.846Z,21.2
2018-10-05T11:55:38.162Z,21.3
2018-10-05T11:56:28.753Z,21.3
2018-10-05T11:57:17.852Z,21.3
2018-10-05T11:58:08.000Z,21.3
2018-10-05T11:58:58.556Z,21.3
2018-10-05T11:59:50.077Z,21.3
2018-10-05T12:00:37.922Z,21.3
2018-10-05T12:01:29.202Z,21.3
2018-10-05T12:02:19.428Z,21.3
2018-10-05T12:03:09.177Z,21.3
2018-10-05T12:04:00.507Z,21.3
2018-10-05T12:04:50.426Z,21.3
2018-10-05T12:05:38.685Z,21.3
2018-10-05T12:06:29.961Z,21.3
2018-10-05T12:07:20.382Z,21.3
2018-10-05T12:08:10.264Z,21.3
2018-10-05T12:09:00.423Z,21.3
2018-10-05T12:09:50.647Z,21.3
2018-10-05T12:10:40.181Z,21.3
2018-10-05T12:11:30.207Z,21.3
2018-10-05T12:12:20.070Z,21.3
2018-10-05T12:13:10.557Z,21.3
2018-10-05T12:14:02.777Z,21.3
2018-10-05T12:14:51.065Z,21.3
2018-10-05T12:15:40.553Z,21.3
2018-10-05T12:16:31.045Z,21.3
2018-10-05T12:17:20.624Z,21.3
2018-10-05T12:18:10.472Z,21.3
2018-10-05T12:19:00.789Z,21.3
2018-10-05T12:19:49.922Z,21.3
2018-10-05T12:20:40.392Z,21.3
2018-10-05T12:21:30.712Z,21.3
2018-10-05T12:22:20.632Z,21.3
2018-10-05T12:23:11.417Z,21.3
2018-10-05T12:23:59.815Z,21.3
2018-10-05T12:24:50.657Z,21.3
2018-10-05T12:25:40.009Z,21.3
2018-10-05T12:26:31.402Z,21.3
2018-10-05T12:27:20.457Z,21.3
2018-10-05T12:28:10.766Z,21.3
2018-10-05T12:29:01.214Z,21.3
2018-10-05T12:29:51.600Z,21.3